sensor_id;sensor_type;location;lat;lon;timestamp;P1;durP1;ratioP1;P2;durP2;ratioP2
12451;SDS011;6291;48.924;12.204;2022-07-17T00:04:24;2.60;;;2.00;;
12451;SDS011;6291;48.924;12.204;2022-07-17T00:09:28;3.65;;;2.20;;
12451;SDS011;6291;48.924;12.204;2022-07-17T00:14:32;2.35;;;2.05;;
12451;SDS011;6291;48.924;12.204;2022-07-17T00:19:37;3.10;;;2.10;;
12451;SDS011;6291;48.924;12.204;2022-07-17T00:24:40;2.60;;;2.30;;
12451;SDS011;6291;48.924;12.204;2022-07-17T00:29:43;3.78;;;2.30;;
12451;SDS011;6291;48.924;12.204;2022-07-17T00:34:48;3.20;;;2.22;;
12451;SDS011;6291;48.924;12.204;2022-07-17T00:39:51;3.35;;;2.15;;
12451;SDS011;6291;48.924;12.204;2022-07-17T00:44:55;3.83;;;2.27;;
12451;SDS011;6291;48.924;12.204;2022-07-17T00:50:00;3.17;;;2.37;;
12451;SDS011;6291;48.924;12.204;2022-07-17T00:55:04;4.63;;;2.40;;
12451;SDS011;6291;48.924;12.204;2022-07-17T01:00:27;3.60;;;2.55;;
12451;SDS011;6291;48.924;12.204;2022-07-17T01:05:32;2.97;;;2.45;;
12451;SDS011;6291;48.924;12.204;2022-07-17T01:10:36;3.78;;;2.55;;
12451;SDS011;6291;48.924;12.204;2022-07-17T01:15:39;4.40;;;2.60;;
12451;SDS011;6291;48.924;12.204;2022-07-17T01:20:46;3.50;;;2.30;;
12451;SDS011;6291;48.924;12.204;2022-07-17T01:25:51;3.23;;;2.40;;
12451;SDS011;6291;48.924;12.204;2022-07-17T01:30:55;4.40;;;2.85;;
12451;SDS011;6291;48.924;12.204;2022-07-17T01:35:58;5.85;;;2.63;;
12451;SDS011;6291;48.924;12.204;2022-07-17T01:41:03;3.80;;;2.90;;
12451;SDS011;6291;48.924;12.204;2022-07-17T01:46:07;5.10;;;2.88;;
12451;SDS011;6291;48.924;12.204;2022-07-17T01:51:10;3.20;;;2.60;;
12451;SDS011;6291;48.924;12.204;2022-07-17T01:56:15;4.45;;;2.78;;
12451;SDS011;6291;48.924;12.204;2022-07-17T02:01:18;3.00;;;2.40;;
12451;SDS011;6291;48.924;12.204;2022-07-17T02:06:22;3.65;;;3.00;;
12451;SDS011;6291;48.924;12.204;2022-07-17T02:11:26;3.13;;;2.60;;
12451;SDS011;6291;48.924;12.204;2022-07-17T02:16:30;4.03;;;2.55;;
12451;SDS011;6291;48.924;12.204;2022-07-17T02:21:33;3.15;;;2.70;;
12451;SDS011;6291;48.924;12.204;2022-07-17T02:26:38;3.63;;;2.60;;
12451;SDS011;6291;48.924;12.204;2022-07-17T02:31:42;3.53;;;2.70;;
12451;SDS011;6291;48.924;12.204;2022-07-17T02:36:46;4.47;;;2.70;;
12451;SDS011;6291;48.924;12.204;2022-07-17T02:41:50;3.90;;;2.53;;
12451;SDS011;6291;48.924;12.204;2022-07-17T02:46:53;3.78;;;2.40;;
12451;SDS011;6291;48.924;12.204;2022-07-17T02:51:57;2.60;;;2.40;;
12451;SDS011;6291;48.924;12.204;2022-07-17T02:57:01;3.13;;;2.00;;
12451;SDS011;6291;48.924;12.204;2022-07-17T03:02:05;2.75;;;2.42;;
12451;SDS011;6291;48.924;12.204;2022-07-17T03:07:08;2.55;;;2.35;;
12451;SDS011;6291;48.924;12.204;2022-07-17T03:12:13;2.35;;;2.15;;
12451;SDS011;6291;48.924;12.204;2022-07-17T03:17:16;2.60;;;2.23;;
12451;SDS011;6291;48.924;12.204;2022-07-17T03:22:20;3.15;;;2.35;;
12451;SDS011;6291;48.924;12.204;2022-07-17T03:27:25;3.38;;;2.50;;
12451;SDS011;6291;48.924;12.204;2022-07-17T03:32:28;3.33;;;2.20;;
12451;SDS011;6291;48.924;12.204;2022-07-17T03:37:31;2.57;;;2.37;;
12451;SDS011;6291;48.924;12.204;2022-07-17T03:42:36;3.37;;;2.50;;
12451;SDS011;6291;48.924;12.204;2022-07-17T03:47:40;3.13;;;2.00;;
12451;SDS011;6291;48.924;12.204;2022-07-17T03:52:43;3.20;;;2.25;;
12451;SDS011;6291;48.924;12.204;2022-07-17T03:57:48;3.10;;;2.20;;
12451;SDS011;6291;48.924;12.204;2022-07-17T04:02:51;3.08;;;2.40;;
12451;SDS011;6291;48.924;12.204;2022-07-17T04:07:54;2.60;;;2.10;;
12451;SDS011;6291;48.924;12.204;2022-07-17T04:12:59;4.28;;;2.20;;
12451;SDS011;6291;48.924;12.204;2022-07-17T04:18:02;2.30;;;2.10;;
12451;SDS011;6291;48.924;12.204;2022-07-17T04:23:06;3.10;;;2.20;;
12451;SDS011;6291;48.924;12.204;2022-07-17T04:28:11;4.63;;;2.20;;
12451;SDS011;6291;48.924;12.204;2022-07-17T04:33:15;3.42;;;2.08;;
12451;SDS011;6291;48.924;12.204;2022-07-17T04:38:19;2.33;;;1.90;;
12451;SDS011;6291;48.924;12.204;2022-07-17T04:43:24;3.67;;;2.10;;
12451;SDS011;6291;48.924;12.204;2022-07-17T04:48:27;3.17;;;2.15;;
12451;SDS011;6291;48.924;12.204;2022-07-17T04:53:31;2.42;;;2.22;;
12451;SDS011;6291;48.924;12.204;2022-07-17T04:58:36;2.90;;;2.10;;
12451;SDS011;6291;48.924;12.204;2022-07-17T05:03:39;3.72;;;2.10;;
12451;SDS011;6291;48.924;12.204;2022-07-17T05:08:43;2.97;;;2.13;;
12451;SDS011;6291;48.924;12.204;2022-07-17T05:13:47;3.80;;;2.20;;
12451;SDS011;6291;48.924;12.204;2022-07-17T05:18:51;2.33;;;2.00;;
12451;SDS011;6291;48.924;12.204;2022-07-17T05:23:54;2.92;;;1.70;;
12451;SDS011;6291;48.924;12.204;2022-07-17T05:28:59;2.60;;;1.83;;
12451;SDS011;6291;48.924;12.204;2022-07-17T05:34:02;2.58;;;1.60;;
12451;SDS011;6291;48.924;12.204;2022-07-17T05:39:05;3.10;;;1.70;;
12451;SDS011;6291;48.924;12.204;2022-07-17T05:44:11;2.97;;;1.40;;
12451;SDS011;6291;48.924;12.204;2022-07-17T05:49:14;4.10;;;1.20;;
12451;SDS011;6291;48.924;12.204;2022-07-17T05:54:17;2.17;;;1.40;;
12451;SDS011;6291;48.924;12.204;2022-07-17T05:59:22;2.17;;;1.30;;
12451;SDS011;6291;48.924;12.204;2022-07-17T06:04:25;2.17;;;1.13;;
12451;SDS011;6291;48.924;12.204;2022-07-17T06:09:29;2.85;;;1.15;;
12451;SDS011;6291;48.924;12.204;2022-07-17T06:14:34;2.70;;;1.23;;
12451;SDS011;6291;48.924;12.204;2022-07-17T06:19:38;2.55;;;1.10;;
12451;SDS011;6291;48.924;12.204;2022-07-17T06:24:41;2.80;;;1.45;;
12451;SDS011;6291;48.924;12.204;2022-07-17T06:29:46;1.90;;;1.00;;
12451;SDS011;6291;48.924;12.204;2022-07-17T06:34:57;1.27;;;0.95;;
12451;SDS011;6291;48.924;12.204;2022-07-17T06:40:00;2.60;;;1.10;;
12451;SDS011;6291;48.924;12.204;2022-07-17T06:45:05;3.03;;;1.33;;
12451;SDS011;6291;48.924;12.204;2022-07-17T06:50:09;1.42;;;1.00;;
12451;SDS011;6291;48.924;12.204;2022-07-17T06:55:13;3.40;;;1.23;;
12451;SDS011;6291;48.924;12.204;2022-07-17T07:00:18;3.55;;;1.40;;
12451;SDS011;6291;48.924;12.204;2022-07-17T07:05:21;1.60;;;1.08;;
12451;SDS011;6291;48.924;12.204;2022-07-17T07:10:24;2.50;;;1.10;;
12451;SDS011;6291;48.924;12.204;2022-07-17T07:15:29;2.50;;;1.13;;
12451;SDS011;6291;48.924;12.204;2022-07-17T07:20:32;1.08;;;0.98;;
12451;SDS011;6291;48.924;12.204;2022-07-17T07:25:36;1.60;;;1.00;;
12451;SDS011;6291;48.924;12.204;2022-07-17T07:30:40;2.38;;;1.10;;
12451;SDS011;6291;48.924;12.204;2022-07-17T07:35:44;2.28;;;1.20;;
12451;SDS011;6291;48.924;12.204;2022-07-17T07:40:47;1.70;;;1.25;;
12451;SDS011;6291;48.924;12.204;2022-07-17T07:45:52;2.00;;;1.27;;
12451;SDS011;6291;48.924;12.204;2022-07-17T07:50:56;1.75;;;1.20;;
12451;SDS011;6291;48.924;12.204;2022-07-17T07:55:59;2.25;;;1.10;;
12451;SDS011;6291;48.924;12.204;2022-07-17T08:01:04;3.43;;;1.13;;
12451;SDS011;6291;48.924;12.204;2022-07-17T08:06:07;2.00;;;1.20;;
12451;SDS011;6291;48.924;12.204;2022-07-17T08:11:13;1.93;;;1.20;;
12451;SDS011;6291;48.924;12.204;2022-07-17T08:16:18;2.13;;;1.17;;
12451;SDS011;6291;48.924;12.204;2022-07-17T08:21:22;1.48;;;1.10;;
12451;SDS011;6291;48.924;12.204;2022-07-17T08:26:25;2.10;;;1.17;;
12451;SDS011;6291;48.924;12.204;2022-07-17T08:31:30;2.97;;;1.20;;
12451;SDS011;6291;48.924;12.204;2022-07-17T08:36:34;3.30;;;1.20;;
12451;SDS011;6291;48.924;12.204;2022-07-17T08:41:37;1.47;;;1.00;;
12451;SDS011;6291;48.924;12.204;2022-07-17T08:46:42;1.05;;;0.90;;
12451;SDS011;6291;48.924;12.204;2022-07-17T08:51:47;1.40;;;1.20;;
12451;SDS011;6291;48.924;12.204;2022-07-17T08:56:50;1.75;;;1.10;;
12451;SDS011;6291;48.924;12.204;2022-07-17T09:01:55;1.77;;;1.20;;
12451;SDS011;6291;48.924;12.204;2022-07-17T09:07:00;2.13;;;1.00;;
12451;SDS011;6291;48.924;12.204;2022-07-17T09:12:05;2.25;;;1.00;;
12451;SDS011;6291;48.924;12.204;2022-07-17T09:17:10;2.00;;;1.17;;
12451;SDS011;6291;48.924;12.204;2022-07-17T09:22:14;1.90;;;0.90;;
12451;SDS011;6291;48.924;12.204;2022-07-17T09:27:30;1.83;;;0.95;;
12451;SDS011;6291;48.924;12.204;2022-07-17T09:32:37;2.10;;;0.80;;
12451;SDS011;6291;48.924;12.204;2022-07-17T09:37:42;1.07;;;0.93;;
12451;SDS011;6291;48.924;12.204;2022-07-17T09:42:47;1.98;;;1.25;;
12451;SDS011;6291;48.924;12.204;2022-07-17T09:47:59;1.58;;;1.00;;
12451;SDS011;6291;48.924;12.204;2022-07-17T09:53:04;1.60;;;0.80;;
12451;SDS011;6291;48.924;12.204;2022-07-17T09:58:09;1.60;;;1.02;;
12451;SDS011;6291;48.924;12.204;2022-07-17T10:03:17;1.65;;;0.90;;
12451;SDS011;6291;48.924;12.204;2022-07-17T10:08:21;2.30;;;1.10;;
12451;SDS011;6291;48.924;12.204;2022-07-17T10:13:25;1.43;;;1.00;;
12451;SDS011;6291;48.924;12.204;2022-07-17T10:18:37;1.95;;;1.00;;
12451;SDS011;6291;48.924;12.204;2022-07-17T10:23:43;2.07;;;0.93;;
12451;SDS011;6291;48.924;12.204;2022-07-17T10:28:50;1.70;;;0.90;;
12451;SDS011;6291;48.924;12.204;2022-07-17T10:33:58;2.33;;;1.00;;
12451;SDS011;6291;48.924;12.204;2022-07-17T10:39:12;1.10;;;1.00;;
12451;SDS011;6291;48.924;12.204;2022-07-17T10:44:23;1.42;;;0.90;;
12451;SDS011;6291;48.924;12.204;2022-07-17T10:49:28;1.25;;;0.98;;
12451;SDS011;6291;48.924;12.204;2022-07-17T10:54:32;1.35;;;1.10;;
12451;SDS011;6291;48.924;12.204;2022-07-17T10:59:40;1.90;;;0.90;;
12451;SDS011;6291;48.924;12.204;2022-07-17T11:04:45;1.80;;;0.90;;
12451;SDS011;6291;48.924;12.204;2022-07-17T11:09:49;1.27;;;0.90;;
12451;SDS011;6291;48.924;12.204;2022-07-17T11:14:58;2.20;;;0.90;;
12451;SDS011;6291;48.924;12.204;2022-07-17T11:20:04;1.02;;;0.80;;
12451;SDS011;6291;48.924;12.204;2022-07-17T11:25:09;1.77;;;0.90;;
12451;SDS011;6291;48.924;12.204;2022-07-17T11:30:14;1.33;;;0.83;;
12451;SDS011;6291;48.924;12.204;2022-07-17T11:35:20;1.57;;;0.90;;
12451;SDS011;6291;48.924;12.204;2022-07-17T11:40:45;2.07;;;0.80;;
12451;SDS011;6291;48.924;12.204;2022-07-17T11:45:49;2.20;;;0.98;;
12451;SDS011;6291;48.924;12.204;2022-07-17T11:50:55;0.90;;;0.87;;
12451;SDS011;6291;48.924;12.204;2022-07-17T11:55:59;0.85;;;0.85;;
12451;SDS011;6291;48.924;12.204;2022-07-17T12:01:03;2.60;;;1.10;;
12451;SDS011;6291;48.924;12.204;2022-07-17T12:06:08;2.67;;;1.00;;
12451;SDS011;6291;48.924;12.204;2022-07-17T12:11:12;1.87;;;0.90;;
12451;SDS011;6291;48.924;12.204;2022-07-17T12:16:20;2.27;;;1.10;;
12451;SDS011;6291;48.924;12.204;2022-07-17T12:21:27;2.80;;;1.05;;
12451;SDS011;6291;48.924;12.204;2022-07-17T12:26:31;1.30;;;0.80;;
12451;SDS011;6291;48.924;12.204;2022-07-17T12:31:35;1.40;;;0.70;;
12451;SDS011;6291;48.924;12.204;2022-07-17T12:36:40;1.25;;;0.90;;
12451;SDS011;6291;48.924;12.204;2022-07-17T12:41:44;1.80;;;0.80;;
12451;SDS011;6291;48.924;12.204;2022-07-17T12:46:48;1.47;;;0.93;;
12451;SDS011;6291;48.924;12.204;2022-07-17T12:51:55;1.30;;;0.90;;
12451;SDS011;6291;48.924;12.204;2022-07-17T12:56:58;1.30;;;0.82;;
12451;SDS011;6291;48.924;12.204;2022-07-17T13:02:03;1.50;;;0.80;;
12451;SDS011;6291;48.924;12.204;2022-07-17T13:07:08;1.05;;;0.77;;
12451;SDS011;6291;48.924;12.204;2022-07-17T13:12:12;1.37;;;0.87;;
12451;SDS011;6291;48.924;12.204;2022-07-17T13:17:15;1.38;;;0.90;;
12451;SDS011;6291;48.924;12.204;2022-07-17T13:22:20;0.82;;;0.70;;
12451;SDS011;6291;48.924;12.204;2022-07-17T13:27:24;2.00;;;0.90;;
12451;SDS011;6291;48.924;12.204;2022-07-17T13:32:29;1.02;;;0.88;;
12451;SDS011;6291;48.924;12.204;2022-07-17T13:37:34;1.30;;;0.90;;
12451;SDS011;6291;48.924;12.204;2022-07-17T13:42:39;2.58;;;0.90;;
12451;SDS011;6291;48.924;12.204;2022-07-17T13:47:43;1.40;;;0.80;;
12451;SDS011;6291;48.924;12.204;2022-07-17T13:52:48;1.13;;;0.73;;
12451;SDS011;6291;48.924;12.204;2022-07-17T13:57:51;1.70;;;0.70;;
12451;SDS011;6291;48.924;12.204;2022-07-17T14:02:55;1.30;;;0.80;;
12451;SDS011;6291;48.924;12.204;2022-07-17T14:08:00;1.52;;;0.70;;
12451;SDS011;6291;48.924;12.204;2022-07-17T14:13:04;1.58;;;0.80;;
12451;SDS011;6291;48.924;12.204;2022-07-17T14:18:07;1.23;;;0.77;;
12451;SDS011;6291;48.924;12.204;2022-07-17T14:23:13;2.10;;;0.90;;
12451;SDS011;6291;48.924;12.204;2022-07-17T14:28:19;3.35;;;0.82;;
12451;SDS011;6291;48.924;12.204;2022-07-17T14:33:22;0.90;;;0.60;;
12451;SDS011;6291;48.924;12.204;2022-07-17T14:38:27;1.50;;;0.80;;
12451;SDS011;6291;48.924;12.204;2022-07-17T14:43:31;1.00;;;0.70;;
12451;SDS011;6291;48.924;12.204;2022-07-17T14:48:43;1.20;;;0.80;;
12451;SDS011;6291;48.924;12.204;2022-07-17T14:53:48;1.60;;;0.73;;
12451;SDS011;6291;48.924;12.204;2022-07-17T14:58:52;1.27;;;0.63;;
12451;SDS011;6291;48.924;12.204;2022-07-17T15:03:56;0.90;;;0.70;;
12451;SDS011;6291;48.924;12.204;2022-07-17T15:09:01;2.20;;;0.70;;
12451;SDS011;6291;48.924;12.204;2022-07-17T15:14:04;1.10;;;1.00;;
12451;SDS011;6291;48.924;12.204;2022-07-17T15:19:08;1.97;;;0.80;;
12451;SDS011;6291;48.924;12.204;2022-07-17T15:24:13;1.20;;;0.70;;
12451;SDS011;6291;48.924;12.204;2022-07-17T15:29:17;0.80;;;0.67;;
12451;SDS011;6291;48.924;12.204;2022-07-17T15:34:22;1.30;;;0.80;;
12451;SDS011;6291;48.924;12.204;2022-07-17T15:39:28;0.98;;;0.70;;
12451;SDS011;6291;48.924;12.204;2022-07-17T15:44:31;1.30;;;0.70;;
12451;SDS011;6291;48.924;12.204;2022-07-17T15:49:35;2.65;;;0.90;;
12451;SDS011;6291;48.924;12.204;2022-07-17T15:54:41;1.40;;;0.60;;
12451;SDS011;6291;48.924;12.204;2022-07-17T15:59:49;1.50;;;0.70;;
12451;SDS011;6291;48.924;12.204;2022-07-17T16:04:52;1.43;;;0.80;;
12451;SDS011;6291;48.924;12.204;2022-07-17T16:09:57;2.00;;;0.80;;
12451;SDS011;6291;48.924;12.204;2022-07-17T16:15:01;2.25;;;0.70;;
12451;SDS011;6291;48.924;12.204;2022-07-17T16:20:06;1.60;;;1.00;;
12451;SDS011;6291;48.924;12.204;2022-07-17T16:25:13;1.23;;;0.60;;
12451;SDS011;6291;48.924;12.204;2022-07-17T16:30:17;0.87;;;0.60;;
12451;SDS011;6291;48.924;12.204;2022-07-17T16:35:20;1.47;;;0.67;;
12451;SDS011;6291;48.924;12.204;2022-07-17T16:40:25;2.25;;;0.70;;
12451;SDS011;6291;48.924;12.204;2022-07-17T16:45:29;1.33;;;0.60;;
12451;SDS011;6291;48.924;12.204;2022-07-17T16:50:40;3.70;;;0.90;;
12451;SDS011;6291;48.924;12.204;2022-07-17T16:55:47;3.35;;;0.70;;
12451;SDS011;6291;48.924;12.204;2022-07-17T17:00:50;1.73;;;0.85;;
12451;SDS011;6291;48.924;12.204;2022-07-17T17:05:54;1.60;;;0.93;;
12451;SDS011;6291;48.924;12.204;2022-07-17T17:10:58;3.30;;;0.80;;
12451;SDS011;6291;48.924;12.204;2022-07-17T17:16:02;1.30;;;0.85;;
12451;SDS011;6291;48.924;12.204;2022-07-17T17:21:05;1.20;;;0.70;;
12451;SDS011;6291;48.924;12.204;2022-07-17T17:26:10;1.63;;;0.60;;
12451;SDS011;6291;48.924;12.204;2022-07-17T17:31:13;1.23;;;0.90;;
12451;SDS011;6291;48.924;12.204;2022-07-17T17:36:17;1.27;;;0.70;;
12451;SDS011;6291;48.924;12.204;2022-07-17T17:41:22;2.08;;;0.90;;
12451;SDS011;6291;48.924;12.204;2022-07-17T17:46:25;1.10;;;0.60;;
12451;SDS011;6291;48.924;12.204;2022-07-17T17:51:29;0.75;;;0.63;;
12451;SDS011;6291;48.924;12.204;2022-07-17T17:56:34;0.95;;;0.73;;
12451;SDS011;6291;48.924;12.204;2022-07-17T18:01:38;2.38;;;1.63;;
12451;SDS011;6291;48.924;12.204;2022-07-17T18:06:41;2.00;;;0.80;;
12451;SDS011;6291;48.924;12.204;2022-07-17T18:11:46;2.08;;;0.57;;
12451;SDS011;6291;48.924;12.204;2022-07-17T18:16:50;1.50;;;1.00;;
12451;SDS011;6291;48.924;12.204;2022-07-17T18:21:53;0.80;;;0.70;;
12451;SDS011;6291;48.924;12.204;2022-07-17T18:26:58;2.63;;;0.98;;
12451;SDS011;6291;48.924;12.204;2022-07-17T18:32:01;1.40;;;0.85;;
12451;SDS011;6291;48.924;12.204;2022-07-17T18:37:07;3.78;;;0.90;;
12451;SDS011;6291;48.924;12.204;2022-07-17T18:42:13;3.25;;;1.00;;
12451;SDS011;6291;48.924;12.204;2022-07-17T18:47:17;3.90;;;1.07;;
12451;SDS011;6291;48.924;12.204;2022-07-17T18:52:20;4.10;;;1.45;;
12451;SDS011;6291;48.924;12.204;2022-07-17T18:57:25;5.70;;;1.50;;
12451;SDS011;6291;48.924;12.204;2022-07-17T19:02:29;4.72;;;1.20;;
12451;SDS011;6291;48.924;12.204;2022-07-17T19:07:33;6.20;;;1.20;;
12451;SDS011;6291;48.924;12.204;2022-07-17T19:12:37;5.90;;;1.42;;
12451;SDS011;6291;48.924;12.204;2022-07-17T19:17:41;3.67;;;1.63;;
12451;SDS011;6291;48.924;12.204;2022-07-17T19:22:44;4.13;;;1.10;;
12451;SDS011;6291;48.924;12.204;2022-07-17T19:27:50;4.93;;;1.10;;
12451;SDS011;6291;48.924;12.204;2022-07-17T19:32:54;4.63;;;1.17;;
12451;SDS011;6291;48.924;12.204;2022-07-17T19:37:58;2.53;;;1.02;;
12451;SDS011;6291;48.924;12.204;2022-07-17T19:43:03;4.28;;;1.20;;
12451;SDS011;6291;48.924;12.204;2022-07-17T19:48:06;13.90;;;2.87;;
12451;SDS011;6291;48.924;12.204;2022-07-17T19:53:09;8.10;;;2.30;;
12451;SDS011;6291;48.924;12.204;2022-07-17T19:58:16;13.43;;;3.15;;
12451;SDS011;6291;48.924;12.204;2022-07-17T20:03:19;9.03;;;2.40;;
12451;SDS011;6291;48.924;12.204;2022-07-17T20:08:22;5.85;;;1.90;;
12451;SDS011;6291;48.924;12.204;2022-07-17T20:13:27;6.63;;;1.92;;
12451;SDS011;6291;48.924;12.204;2022-07-17T20:18:32;17.17;;;2.97;;
12451;SDS011;6291;48.924;12.204;2022-07-17T20:23:36;26.42;;;4.90;;
12451;SDS011;6291;48.924;12.204;2022-07-17T20:28:40;30.80;;;4.88;;
12451;SDS011;6291;48.924;12.204;2022-07-17T20:33:44;29.55;;;5.05;;
12451;SDS011;6291;48.924;12.204;2022-07-17T20:38:47;27.42;;;4.18;;
12451;SDS011;6291;48.924;12.204;2022-07-17T20:43:52;20.73;;;3.80;;
12451;SDS011;6291;48.924;12.204;2022-07-17T20:48:57;21.48;;;3.75;;
12451;SDS011;6291;48.924;12.204;2022-07-17T20:54:00;14.75;;;2.97;;
12451;SDS011;6291;48.924;12.204;2022-07-17T20:59:05;10.67;;;2.37;;
12451;SDS011;6291;48.924;12.204;2022-07-17T21:04:08;10.18;;;3.40;;
12451;SDS011;6291;48.924;12.204;2022-07-17T21:09:12;12.25;;;2.63;;
12451;SDS011;6291;48.924;12.204;2022-07-17T21:14:19;8.77;;;2.50;;
12451;SDS011;6291;48.924;12.204;2022-07-17T21:19:22;10.80;;;2.30;;
12451;SDS011;6291;48.924;12.204;2022-07-17T21:24:25;6.68;;;2.10;;
12451;SDS011;6291;48.924;12.204;2022-07-17T21:29:30;5.03;;;1.88;;
12451;SDS011;6291;48.924;12.204;2022-07-17T21:34:34;6.40;;;1.80;;
12451;SDS011;6291;48.924;12.204;2022-07-17T21:39:37;16.00;;;2.90;;
12451;SDS011;6291;48.924;12.204;2022-07-17T21:44:42;18.85;;;3.20;;
12451;SDS011;6291;48.924;12.204;2022-07-17T21:49:45;14.77;;;2.92;;
12451;SDS011;6291;48.924;12.204;2022-07-17T21:54:48;18.50;;;2.85;;
12451;SDS011;6291;48.924;12.204;2022-07-17T21:59:53;9.50;;;2.00;;
12451;SDS011;6291;48.924;12.204;2022-07-17T22:04:57;8.35;;;2.08;;
12451;SDS011;6291;48.924;12.204;2022-07-17T22:10:01;7.37;;;2.10;;
12451;SDS011;6291;48.924;12.204;2022-07-17T22:15:08;7.70;;;1.98;;
12451;SDS011;6291;48.924;12.204;2022-07-17T22:20:13;7.23;;;1.80;;
12451;SDS011;6291;48.924;12.204;2022-07-17T22:25:16;6.82;;;1.95;;
12451;SDS011;6291;48.924;12.204;2022-07-17T22:30:21;7.57;;;1.90;;
12451;SDS011;6291;48.924;12.204;2022-07-17T22:35:25;4.07;;;1.70;;
12451;SDS011;6291;48.924;12.204;2022-07-17T22:40:28;6.32;;;1.60;;
12451;SDS011;6291;48.924;12.204;2022-07-17T22:45:33;3.35;;;1.30;;
12451;SDS011;6291;48.924;12.204;2022-07-17T22:50:36;2.87;;;1.30;;
12451;SDS011;6291;48.924;12.204;2022-07-17T22:55:40;4.20;;;1.50;;
12451;SDS011;6291;48.924;12.204;2022-07-17T23:00:45;3.93;;;1.50;;
12451;SDS011;6291;48.924;12.204;2022-07-17T23:05:48;4.63;;;1.25;;
12451;SDS011;6291;48.924;12.204;2022-07-17T23:10:52;4.87;;;1.90;;
12451;SDS011;6291;48.924;12.204;2022-07-17T23:15:57;4.43;;;1.50;;
12451;SDS011;6291;48.924;12.204;2022-07-17T23:21:00;3.60;;;1.40;;
12451;SDS011;6291;48.924;12.204;2022-07-17T23:26:04;4.10;;;1.50;;
12451;SDS011;6291;48.924;12.204;2022-07-17T23:31:09;2.78;;;1.58;;
12451;SDS011;6291;48.924;12.204;2022-07-17T23:36:12;3.47;;;1.77;;
12451;SDS011;6291;48.924;12.204;2022-07-17T23:41:15;4.20;;;1.73;;
12451;SDS011;6291;48.924;12.204;2022-07-17T23:46:20;5.03;;;1.85;;
12451;SDS011;6291;48.924;12.204;2022-07-17T23:51:24;3.47;;;1.77;;
12451;SDS011;6291;48.924;12.204;2022-07-17T23:56:27;5.63;;;1.70;;
